createdAt,value
2019-03-05T00:01:19.542Z,5.40
2019-03-05T00:03:50.313Z,5.40
2019-03-05T00:06:20.991Z,5.30
2019-03-05T00:08:51.710Z,5.10
2019-03-05T00:11:22.321Z,5.20
2019-03-05T00:13:52.878Z,5.20
2019-03-05T00:16:23.588Z,5.10
2019-03-05T00:18:54.246Z,5.00
2019-03-05T00:21:24.885Z,4.90
2019-03-05T00:24:14.907Z,5.10
2019-03-05T00:26:46.081Z,5.00
2019-03-05T00:29:56.218Z,5.10
2019-03-05T00:32:26.908Z,5.50
2019-03-05T00:35:41.553Z,5.50
2019-03-05T00:44:25.780Z,5.20
2019-03-05T00:47:35.501Z,5.20
2019-03-05T00:50:39.246Z,5.20
2019-03-05T00:53:26.552Z,5.40
2019-03-05T00:56:28.419Z,5.30
2019-03-05T00:59:36.285Z,5.20
2019-03-05T01:02:21.265Z,5.40
2019-03-05T01:05:08.285Z,5.50
2019-03-05T01:07:38.902Z,5.60
2019-03-05T01:10:11.047Z,5.40
2019-03-05T01:12:41.849Z,5.30
2019-03-05T01:15:12.492Z,5.40
2019-03-05T01:17:43.097Z,5.60
2019-03-05T01:20:14.171Z,5.60
2019-03-05T01:22:44.845Z,5.70
2019-03-05T01:25:27.458Z,5.40
2019-03-05T01:27:58.205Z,5.50
2019-03-05T01:30:57.488Z,5.40
2019-03-05T01:33:32.989Z,5.40
2019-03-05T01:36:08.373Z,5.40
2019-03-05T01:39:04.293Z,5.40
2019-03-05T01:41:35.469Z,5.40
2019-03-05T01:44:07.145Z,5.40
2019-03-05T01:46:37.837Z,5.40
2019-03-05T01:49:08.441Z,5.50
2019-03-05T01:51:38.984Z,5.30
2019-03-05T01:54:09.521Z,5.30
2019-03-05T01:56:40.173Z,5.40
2019-03-05T01:59:10.781Z,5.30
2019-03-05T02:01:41.477Z,5.30
2019-03-05T02:04:12.011Z,5.30
2019-03-05T02:06:42.815Z,5.30
2019-03-05T02:09:13.614Z,5.30
2019-03-05T02:11:44.160Z,5.40
2019-03-05T02:14:14.690Z,5.40
2019-03-05T02:16:45.321Z,5.50
2019-03-05T02:19:34.855Z,5.40
2019-03-05T02:22:07.174Z,5.40
2019-03-05T02:25:24.909Z,5.40
2019-03-05T02:28:03.082Z,5.30
2019-03-05T02:31:01.374Z,5.40
2019-03-05T02:33:52.701Z,5.40
2019-03-05T02:36:41.262Z,5.50
2019-03-05T02:39:31.923Z,5.40
2019-03-05T02:42:26.197Z,5.40
2019-03-05T02:45:31.801Z,5.40
2019-03-05T02:48:48.399Z,5.40
2019-03-05T02:51:50.699Z,5.30
2019-03-05T02:55:11.756Z,5.40
2019-03-05T02:57:40.800Z,5.60
2019-03-05T03:00:13.348Z,5.50
2019-03-05T03:02:57.471Z,5.50
2019-03-05T03:05:32.991Z,5.50
2019-03-05T03:08:03.626Z,5.50
2019-03-05T03:10:34.376Z,5.50
2019-03-05T03:13:05.090Z,5.50
2019-03-05T03:15:35.695Z,5.50
2019-03-05T03:18:06.378Z,5.50
2019-03-05T03:20:36.942Z,5.60
2019-03-05T03:23:07.567Z,5.50
2019-03-05T03:25:38.185Z,5.50
2019-03-05T03:28:08.727Z,5.40
2019-03-05T03:30:39.250Z,5.40
2019-03-05T03:33:09.892Z,5.40
2019-03-05T03:35:40.533Z,5.30
2019-03-05T03:38:11.159Z,5.30
2019-03-05T03:40:41.772Z,5.40
2019-03-05T03:43:12.479Z,5.40
2019-03-05T03:45:43.086Z,5.40
2019-03-05T03:48:13.886Z,5.40
2019-03-05T03:50:44.491Z,5.40
2019-03-05T03:53:15.132Z,5.40
2019-03-05T03:55:45.744Z,5.40
2019-03-05T03:58:16.449Z,5.30
2019-03-05T04:00:47.070Z,5.30
2019-03-05T04:03:17.802Z,5.40
2019-03-05T04:05:48.342Z,5.30
2019-03-05T04:08:18.973Z,5.20
2019-03-05T04:10:49.593Z,5.30
2019-03-05T04:13:20.301Z,5.20
2019-03-05T04:15:50.981Z,5.20
2019-03-05T04:18:21.619Z,5.20
2019-03-05T04:20:53.354Z,5.20
2019-03-05T04:23:24.002Z,5.10
2019-03-05T04:25:54.606Z,5.20
2019-03-05T04:28:25.239Z,5.20
2019-03-05T04:30:55.925Z,5.10
2019-03-05T04:33:26.476Z,5.10
2019-03-05T04:35:57.070Z,5.10
2019-03-05T04:38:27.767Z,5.10
2019-03-05T04:40:58.374Z,5.10
2019-03-05T04:43:29.087Z,5.10
2019-03-05T04:46:24.797Z,5.10
2019-03-05T04:49:13.016Z,4.90
2019-03-05T04:51:49.043Z,4.90
2019-03-05T04:54:19.673Z,4.90
2019-03-05T04:56:50.203Z,4.80
2019-03-05T04:59:20.757Z,5.00
2019-03-05T05:01:51.454Z,4.90
2019-03-05T05:04:22.097Z,4.80
2019-03-05T05:06:52.625Z,5.00
2019-03-05T05:09:23.257Z,4.80
2019-03-05T05:11:53.882Z,4.70
2019-03-05T05:14:24.529Z,4.90
2019-03-05T05:16:55.140Z,4.90
2019-03-05T05:19:27.389Z,4.80
2019-03-05T05:21:59.330Z,5.00
2019-03-05T05:24:29.961Z,4.80
2019-03-05T05:27:00.580Z,4.90
2019-03-05T05:29:31.213Z,4.80
2019-03-05T05:32:01.889Z,4.80
2019-03-05T05:34:32.531Z,4.70
2019-03-05T05:37:03.215Z,4.60
2019-03-05T05:40:10.198Z,4.80
2019-03-05T05:42:40.816Z,4.80
2019-03-05T05:45:14.633Z,4.70
2019-03-05T05:47:45.154Z,4.80
2019-03-05T05:50:15.858Z,5.00
2019-03-05T05:52:46.468Z,5.10
2019-03-05T05:55:17.038Z,5.10
2019-03-05T05:57:47.536Z,5.30
2019-03-05T06:00:18.273Z,5.30
2019-03-05T06:02:48.814Z,5.20
2019-03-05T06:05:19.428Z,5.30
2019-03-05T06:07:50.045Z,5.20
2019-03-05T06:10:20.753Z,5.20
2019-03-05T06:12:51.297Z,5.30
2019-03-05T06:15:21.998Z,5.20
2019-03-05T06:17:52.524Z,5.50
2019-03-05T06:20:23.214Z,5.70
2019-03-05T06:22:53.925Z,5.70
2019-03-05T06:25:24.621Z,5.60
2019-03-05T06:27:55.169Z,5.50
2019-03-05T06:30:25.730Z,5.00
2019-03-05T06:32:56.266Z,5.10
2019-03-05T06:35:26.815Z,4.70
2019-03-05T06:37:57.426Z,4.60
2019-03-05T06:40:28.113Z,4.70
2019-03-05T06:42:58.726Z,4.90
2019-03-05T06:45:29.433Z,5.00
2019-03-05T06:48:00.062Z,5.10
2019-03-05T06:50:31.083Z,5.40
2019-03-05T06:53:01.687Z,5.30
2019-03-05T06:55:32.304Z,5.40
2019-03-05T06:58:02.917Z,5.70
2019-03-05T07:00:39.750Z,5.70
2019-03-05T07:03:10.395Z,5.70
2019-03-05T07:06:17.036Z,5.90
2019-03-05T07:08:59.346Z,5.80
2019-03-05T07:11:57.826Z,5.70
2019-03-05T07:14:53.404Z,5.80
2019-03-05T07:17:30.232Z,6.00
2019-03-05T07:20:41.815Z,5.90
2019-03-05T07:23:56.311Z,5.80
2019-03-05T07:26:26.945Z,5.80
2019-03-05T07:28:57.641Z,5.90
2019-03-05T07:31:28.275Z,5.90
2019-03-05T07:33:58.878Z,5.90
2019-03-05T07:36:29.430Z,5.90
2019-03-05T07:39:00.042Z,6.00
2019-03-05T07:41:30.597Z,6.10
2019-03-05T07:44:01.197Z,6.30
2019-03-05T07:46:31.897Z,6.40
2019-03-05T07:49:02.505Z,6.60
2019-03-05T07:51:33.130Z,6.70
2019-03-05T07:54:03.743Z,6.80
2019-03-05T07:56:34.374Z,6.80
2019-03-05T07:59:04.985Z,6.80
2019-03-05T08:01:35.690Z,7.00
2019-03-05T08:04:06.309Z,7.00
2019-03-05T08:06:36.921Z,7.10
2019-03-05T08:09:35.155Z,7.10
2019-03-05T08:12:33.848Z,7.10
2019-03-05T08:15:25.045Z,7.60
2019-03-05T08:17:55.675Z,7.70
2019-03-05T08:20:26.358Z,8.10
2019-03-05T08:22:57.083Z,9.00
2019-03-05T08:25:27.774Z,9.00
2019-03-05T08:27:58.401Z,9.30
2019-03-05T08:30:29.087Z,8.80
2019-03-05T08:32:59.706Z,8.80
2019-03-05T08:35:30.297Z,9.80
2019-03-05T08:38:00.853Z,10.40
2019-03-05T08:40:31.514Z,10.20
2019-03-05T08:43:02.108Z,10.80
2019-03-05T08:45:32.725Z,10.50
2019-03-05T08:48:03.368Z,10.20
2019-03-05T08:50:33.965Z,9.30
2019-03-05T08:53:04.590Z,9.30
2019-03-05T08:55:35.193Z,9.80
2019-03-05T08:58:05.846Z,9.20
2019-03-05T09:00:36.457Z,9.10
2019-03-05T09:03:07.010Z,9.60
2019-03-05T09:05:37.529Z,9.50
2019-03-05T09:08:08.157Z,9.30
2019-03-05T09:10:38.701Z,9.60
2019-03-05T09:13:09.737Z,10.00
2019-03-05T09:15:40.345Z,10.30
2019-03-05T09:18:10.899Z,10.30
2019-03-05T09:20:41.821Z,10.20
2019-03-05T09:23:12.385Z,10.00
2019-03-05T09:25:43.086Z,9.50
2019-03-05T09:28:13.793Z,9.20
2019-03-05T09:30:44.393Z,9.20
2019-03-05T09:33:14.935Z,9.80
2019-03-05T09:35:45.469Z,9.50
2019-03-05T09:38:16.177Z,9.80
2019-03-05T09:40:46.790Z,10.10
2019-03-05T09:43:17.413Z,9.70
2019-03-05T09:45:47.957Z,9.80
2019-03-05T09:48:18.602Z,10.00
2019-03-05T09:50:49.199Z,10.20
2019-03-05T09:53:21.106Z,10.40
2019-03-05T09:55:51.711Z,10.30
2019-03-05T09:58:22.343Z,10.60
2019-03-05T10:00:53.013Z,10.00
2019-03-05T10:03:23.684Z,10.70
2019-03-05T10:05:54.393Z,10.30
2019-03-05T10:08:32.377Z,10.00
2019-03-05T10:10:57.369Z,10.20
2019-03-05T10:13:28.095Z,9.90
2019-03-05T10:15:58.794Z,9.60
2019-03-05T10:18:29.405Z,9.80
2019-03-05T10:21:00.209Z,10.00
2019-03-05T10:23:30.824Z,10.60
2019-03-05T10:26:01.521Z,10.90
2019-03-05T10:28:33.841Z,10.40
2019-03-05T10:31:05.754Z,11.70
2019-03-05T10:33:36.364Z,11.70
2019-03-05T10:36:06.998Z,11.90
2019-03-05T10:38:37.708Z,12.70
2019-03-05T10:41:08.404Z,11.90
2019-03-05T10:43:39.018Z,11.30
2019-03-05T10:46:09.653Z,11.20
2019-03-05T10:48:40.257Z,11.30
2019-03-05T10:51:10.890Z,10.90
2019-03-05T10:53:41.418Z,10.80
2019-03-05T10:56:12.138Z,10.60
2019-03-05T10:58:42.827Z,10.80
2019-03-05T11:01:14.402Z,11.80
2019-03-05T11:03:45.215Z,11.50
2019-03-05T11:06:15.898Z,11.60
2019-03-05T11:08:47.398Z,11.20
2019-03-05T11:11:18.233Z,11.00
2019-03-05T11:13:48.833Z,11.20
2019-03-05T11:16:30.157Z,10.80
2019-03-05T11:18:52.398Z,11.40
2019-03-05T11:21:23.073Z,11.80
2019-03-05T11:23:53.689Z,12.00
2019-03-05T11:26:24.328Z,11.40
2019-03-05T11:28:54.958Z,11.30
2019-03-05T11:31:25.730Z,11.30
2019-03-05T11:33:56.445Z,11.20
2019-03-05T11:36:27.176Z,11.50
2019-03-05T11:38:57.793Z,11.20
2019-03-05T11:41:29.038Z,11.30
2019-03-05T11:43:59.793Z,11.10
2019-03-05T11:46:30.530Z,11.00
2019-03-05T11:49:01.226Z,10.80
2019-03-05T11:51:31.931Z,11.10
2019-03-05T11:54:02.615Z,11.00
2019-03-05T11:56:33.249Z,10.80
2019-03-05T11:59:03.878Z,10.70
2019-03-05T12:01:40.866Z,10.50
2019-03-05T12:04:11.546Z,10.40
2019-03-05T12:06:42.108Z,10.40
2019-03-05T12:09:12.721Z,10.20
2019-03-05T12:11:43.378Z,10.10
2019-03-05T12:14:15.033Z,10.10
2019-03-05T12:16:45.654Z,10.10
2019-03-05T12:19:16.264Z,10.10
2019-03-05T12:21:46.918Z,10.00
2019-03-05T12:24:19.967Z,9.90
2019-03-05T12:26:49.873Z,10.10
2019-03-05T12:29:20.479Z,10.00
2019-03-05T12:31:51.117Z,9.90
2019-03-05T12:34:21.722Z,9.90
2019-03-05T12:36:52.473Z,9.90
2019-03-05T12:39:23.205Z,10.00
2019-03-05T12:41:53.836Z,10.00
2019-03-05T12:44:24.464Z,10.00
2019-03-05T12:46:55.620Z,9.90
2019-03-05T12:49:26.244Z,9.90
2019-03-05T12:51:56.937Z,9.90
2019-03-05T12:54:27.629Z,9.90
2019-03-05T12:56:58.191Z,9.80
2019-03-05T12:59:28.809Z,9.80
2019-03-05T13:01:59.513Z,9.70
2019-03-05T13:04:30.120Z,9.70
2019-03-05T13:07:00.785Z,9.70
2019-03-05T13:09:31.466Z,9.70
2019-03-05T13:12:02.088Z,9.60
2019-03-05T13:14:32.699Z,9.60
2019-03-05T13:17:03.260Z,9.60
2019-03-05T13:19:33.864Z,9.70
2019-03-05T13:22:04.957Z,9.60
2019-03-05T13:24:35.839Z,9.70
2019-03-05T13:27:06.548Z,9.60
2019-03-05T13:29:37.161Z,9.60
2019-03-05T13:32:07.711Z,9.50
2019-03-05T13:34:38.313Z,9.50
2019-03-05T13:37:08.959Z,9.40
2019-03-05T13:39:40.646Z,9.30
2019-03-05T13:42:11.284Z,9.40
2019-03-05T13:44:41.901Z,9.30
2019-03-05T13:47:13.539Z,9.30
2019-03-05T13:49:57.491Z,9.30
2019-03-05T13:52:55.877Z,9.30
2019-03-05T13:56:11.918Z,9.30
2019-03-05T13:59:22.371Z,9.30
2019-03-05T14:01:54.061Z,8.90
2019-03-05T14:04:32.787Z,8.90
2019-03-05T14:07:35.630Z,8.50
2019-03-05T14:10:06.591Z,8.40
2019-03-05T14:12:37.234Z,8.30
2019-03-05T14:15:08.564Z,8.20
2019-03-05T14:17:42.058Z,8.20
2019-03-05T14:20:15.362Z,8.10
2019-03-05T14:22:46.057Z,8.00
2019-03-05T14:25:17.340Z,8.00
2019-03-05T14:27:49.257Z,7.90
2019-03-05T14:30:21.140Z,7.90
2019-03-05T14:32:51.994Z,7.80
2019-03-05T14:35:25.065Z,7.80
2019-03-05T14:37:55.808Z,7.80
2019-03-05T14:40:29.087Z,7.80
2019-03-05T14:43:01.251Z,7.80
2019-03-05T14:45:33.775Z,7.90
2019-03-05T14:48:04.647Z,7.80
2019-03-05T14:50:35.768Z,7.80
2019-03-05T14:53:07.169Z,7.70
2019-03-05T14:55:37.813Z,7.70
2019-03-05T14:58:08.535Z,7.60
2019-03-05T15:00:39.548Z,7.50
2019-03-05T15:03:10.214Z,7.50
2019-03-05T15:05:40.883Z,7.40
2019-03-05T15:08:11.959Z,7.40
2019-03-05T15:10:42.668Z,7.30
2019-03-05T15:13:18.606Z,7.30
2019-03-05T15:15:45.505Z,7.30
2019-03-05T15:18:16.136Z,7.30
2019-03-05T15:20:46.752Z,7.20
2019-03-05T15:23:17.389Z,7.20
2019-03-05T15:25:48.022Z,7.20
2019-03-05T15:28:18.653Z,7.20
2019-03-05T15:30:49.235Z,7.20
2019-03-05T15:33:19.902Z,7.10
2019-03-05T15:35:50.617Z,7.10
2019-03-05T15:38:21.250Z,7.00
2019-03-05T15:40:51.986Z,6.90
2019-03-05T15:43:22.716Z,6.80
2019-03-05T15:45:53.334Z,6.70
2019-03-05T15:48:24.194Z,6.60
2019-03-05T15:50:54.913Z,6.60
2019-03-05T15:53:27.579Z,6.60
2019-03-05T15:55:57.837Z,6.60
2019-03-05T15:58:28.503Z,6.50
2019-03-05T16:00:59.382Z,6.50
2019-03-05T16:03:30.008Z,6.40
2019-03-05T16:06:00.703Z,6.40
2019-03-05T16:08:32.503Z,6.40
2019-03-05T16:11:03.474Z,6.30
2019-03-05T16:13:34.245Z,6.30
2019-03-05T16:16:04.843Z,6.30
2019-03-05T16:18:39.178Z,6.30
2019-03-05T16:21:07.898Z,6.20
2019-03-05T16:23:39.433Z,6.20
2019-03-05T16:26:10.122Z,6.20
2019-03-05T16:28:43.625Z,6.10
2019-03-05T16:31:21.673Z,6.10
2019-03-05T16:33:58.596Z,6.10
2019-03-05T16:37:02.074Z,6.10
2019-03-05T16:39:49.009Z,6.00
2019-03-05T16:42:41.829Z,6.00
2019-03-05T16:45:31.117Z,6.00
2019-03-05T16:48:39.241Z,6.00
2019-03-05T16:51:28.095Z,5.90
2019-03-05T16:54:11.429Z,5.90
2019-03-05T16:56:51.867Z,5.90
2019-03-05T16:59:53.285Z,5.90
2019-03-05T17:02:45.794Z,5.90
2019-03-05T17:05:36.421Z,5.90
2019-03-05T17:08:24.769Z,5.90
2019-03-05T17:11:20.457Z,5.90
2019-03-05T17:13:51.165Z,5.80
2019-03-05T17:16:22.025Z,5.80
2019-03-05T17:18:52.788Z,5.80
2019-03-05T17:21:27.476Z,5.80
2019-03-05T17:23:56.802Z,5.80
2019-03-05T17:26:27.432Z,5.90
2019-03-05T17:28:58.208Z,5.90
2019-03-05T17:31:28.917Z,5.90
2019-03-05T17:33:59.532Z,5.90
2019-03-05T17:36:30.401Z,5.80
2019-03-05T17:39:01.081Z,5.80
2019-03-05T17:41:33.347Z,5.90
2019-03-05T17:44:04.021Z,5.80
2019-03-05T17:46:34.831Z,5.80
2019-03-05T17:49:05.505Z,5.90
2019-03-05T17:51:37.288Z,5.90
2019-03-05T17:54:07.979Z,5.90
2019-03-05T17:56:38.686Z,6.00
2019-03-05T17:59:09.740Z,6.00
2019-03-05T18:01:40.514Z,6.00
2019-03-05T18:04:11.189Z,5.90
2019-03-05T18:06:41.809Z,5.90
2019-03-05T18:09:12.593Z,5.90
2019-03-05T18:11:44.826Z,6.00
2019-03-05T18:14:15.577Z,6.00
2019-03-05T18:16:46.268Z,6.00
2019-03-05T18:19:16.946Z,5.90
2019-03-05T18:21:47.659Z,5.90
2019-03-05T18:24:18.333Z,5.90
2019-03-05T18:26:49.209Z,5.90
2019-03-05T18:29:20.989Z,5.90
2019-03-05T18:31:51.912Z,6.00
2019-03-05T18:34:22.673Z,6.00
2019-03-05T18:36:53.393Z,6.00
2019-03-05T18:39:23.999Z,6.00
2019-03-05T18:41:54.697Z,6.00
2019-03-05T18:44:25.377Z,6.00
2019-03-05T18:46:56.088Z,6.10
2019-03-05T18:49:26.697Z,6.00
2019-03-05T18:51:57.347Z,5.90
2019-03-05T18:54:28.034Z,5.90
2019-03-05T18:56:58.741Z,5.90
2019-03-05T18:59:29.367Z,5.90
2019-03-05T19:01:59.996Z,5.90
2019-03-05T19:04:30.702Z,5.90
2019-03-05T19:07:01.424Z,5.90
2019-03-05T19:09:33.030Z,5.80
2019-03-05T19:12:03.663Z,5.90
2019-03-05T19:14:34.265Z,5.90
2019-03-05T19:17:04.902Z,5.90
2019-03-05T19:19:35.513Z,5.90
2019-03-05T19:22:06.257Z,5.90
2019-03-05T19:24:36.941Z,5.90
2019-03-05T19:27:07.578Z,5.80
2019-03-05T19:29:38.330Z,5.90
2019-03-05T19:32:09.275Z,5.90
2019-03-05T19:34:40.854Z,5.90
2019-03-05T19:37:11.868Z,5.80
2019-03-05T19:39:42.534Z,5.80
2019-03-05T19:42:13.238Z,5.90
2019-03-05T19:44:44.143Z,5.80
2019-03-05T19:47:14.936Z,5.80
2019-03-05T19:49:45.549Z,5.70
2019-03-05T19:52:16.257Z,5.70
2019-03-05T19:54:46.950Z,6.40
2019-03-05T19:57:17.573Z,6.20
2019-03-05T19:59:49.289Z,6.30
2019-03-05T20:02:19.991Z,6.20
2019-03-05T20:04:50.598Z,6.10
2019-03-05T20:07:21.322Z,6.00
2019-03-05T20:09:53.309Z,6.00
2019-03-05T20:12:23.953Z,5.90
2019-03-05T20:14:54.572Z,6.00
2019-03-05T20:17:25.425Z,6.10
2019-03-05T20:19:56.461Z,6.10
2019-03-05T20:22:29.579Z,6.30
2019-03-05T20:25:00.018Z,6.30
2019-03-05T20:27:30.752Z,6.50
2019-03-05T20:30:01.510Z,6.90
2019-03-05T20:32:32.530Z,6.90
2019-03-05T20:35:03.285Z,6.40
2019-03-05T20:37:34.065Z,6.60
2019-03-05T20:40:05.647Z,6.20
2019-03-05T20:42:36.654Z,6.10
2019-03-05T20:45:10.996Z,5.90
2019-03-05T20:47:41.693Z,5.80
2019-03-05T20:50:13.026Z,5.80
2019-03-05T20:52:44.973Z,5.70
2019-03-05T20:55:17.213Z,5.70
2019-03-05T20:57:48.086Z,5.70
2019-03-05T21:00:26.409Z,5.70
2019-03-05T21:02:59.109Z,5.70
2019-03-05T21:05:32.386Z,5.70
2019-03-05T21:08:03.148Z,5.70
2019-03-05T21:10:33.941Z,5.70
2019-03-05T21:13:04.642Z,5.70
2019-03-05T21:15:35.500Z,5.80
2019-03-05T21:18:06.745Z,5.80
2019-03-05T21:20:39.113Z,5.80
2019-03-05T21:23:10.174Z,5.90
2019-03-05T21:25:40.903Z,5.80
2019-03-05T21:28:12.461Z,5.80
2019-03-05T21:30:43.257Z,5.80
2019-03-05T21:33:13.919Z,5.70
2019-03-05T21:35:44.719Z,5.70
2019-03-05T21:38:15.455Z,5.70
2019-03-05T21:40:46.333Z,5.70
2019-03-05T21:43:17.065Z,5.80
2019-03-05T21:45:48.490Z,5.80
2019-03-05T21:48:19.117Z,5.80
2019-03-05T21:50:49.912Z,5.80
2019-03-05T21:53:20.607Z,5.80
2019-03-05T21:55:51.312Z,5.80
2019-03-05T21:58:22.331Z,5.80
2019-03-05T22:00:52.967Z,5.80
2019-03-05T22:03:23.819Z,5.80
2019-03-05T22:05:54.608Z,5.80
2019-03-05T22:08:25.688Z,5.70
2019-03-05T22:10:56.465Z,5.70
2019-03-05T22:13:27.126Z,5.70
2019-03-05T22:15:57.747Z,5.70
2019-03-05T22:18:29.697Z,5.70
2019-03-05T22:21:00.610Z,5.70
2019-03-05T22:23:31.248Z,5.70
2019-03-05T22:26:01.885Z,5.80
2019-03-05T22:28:33.759Z,5.80
2019-03-05T22:31:04.561Z,5.70
2019-03-05T22:33:35.242Z,5.70
2019-03-05T22:36:05.865Z,5.70
2019-03-05T22:38:36.467Z,5.70
2019-03-05T22:41:07.202Z,5.80
2019-03-05T22:43:37.980Z,5.70
2019-03-05T22:46:08.556Z,5.70
2019-03-05T22:48:39.157Z,5.70
2019-03-05T22:51:09.797Z,5.70
2019-03-05T22:53:40.390Z,5.70
2019-03-05T22:56:11.102Z,5.70
2019-03-05T22:58:41.715Z,5.70
2019-03-05T23:01:20.465Z,5.70
2019-03-05T23:03:56.654Z,5.70
2019-03-05T23:06:27.706Z,5.70
2019-03-05T23:08:58.476Z,5.70
2019-03-05T23:11:29.590Z,5.70
2019-03-05T23:14:00.365Z,5.70
2019-03-05T23:16:31.090Z,5.70
2019-03-05T23:19:01.757Z,5.70
2019-03-05T23:21:32.577Z,5.70
2019-03-05T23:24:03.194Z,5.70
2019-03-05T23:26:33.969Z,5.70
2019-03-05T23:29:05.649Z,5.70
2019-03-05T23:31:36.279Z,5.70
2019-03-05T23:34:07.059Z,5.70
2019-03-05T23:36:37.689Z,5.60
2019-03-05T23:39:12.908Z,5.70
2019-03-05T23:41:44.994Z,5.70
2019-03-05T23:44:15.692Z,5.70
2019-03-05T23:46:46.403Z,5.70
2019-03-05T23:49:17.007Z,5.60
2019-03-05T23:51:47.704Z,5.60
2019-03-05T23:54:18.297Z,5.50
2019-03-05T23:56:48.914Z,5.40
2019-03-05T23:59:19.526Z,5.40
